Data for 01/21/2015

Time Sea-Level Adjusted Pressure Absolute Pressure Temperature Relative Humidity Dew Point   
(mb) (inHg) (mb) (inHg) (C) (F) (%) (C) (F)
00:05 1025 30.27 854 25.22 -2.9 26.8 65 -8.5 16.7
00:10 1025 30.27 854 25.22 -2.8 27 61 -9.4 15.1
00:15 1025 30.27 854 25.22 -2.6 27.4 61 -9.1 15.6
00:20 1025 30.27 854 25.22 -2.6 27.4 60 -9.3 15.3
00:25 1025 30.27 854 25.22 -2.5 27.5 61 -9 15.8
00:30 1025 30.27 854 25.22 -2.6 27.3 62 -8.9 16
00:35 1025 30.27 854 25.22 -2.7 27.2 62 -9 15.8
00:40 1025 30.27 854 25.22 -2.7 27.1 62 -9 15.8
00:45 1025 30.27 854 25.22 -2.7 27.1 63 -8.8 16.1
00:50 1025 30.27 854 25.22 -2.8 27 64 -8.8 16.2
00:55 1025 30.27 854 25.22 -2.9 26.8 65 -8.6 16.5
01:00 1025 30.27 854 25.22 -3 26.6 65 -8.7 16.3
01:05 1025 30.27 854 25.22 -3.1 26.4 64 -8.9 15.9
01:10 1025 30.27 854 25.22 -3.1 26.4 65 -8.8 16.2
01:15 1025 30.27 854 25.22 -3.1 26.3 64 -8.9 15.9
01:20 1025 30.27 854 25.22 -3.1 26.4 64 -9 15.8
01:25 1025 30.27 854 25.22 -3.1 26.5 66 -8.6 16.6
01:30 1025 30.27 854 25.22 -3.2 26.3 68 -8.3 17.1
01:35 1025 30.27 854 25.22 -3.4 25.8 67 -8.7 16.4
01:40 1025 30.27 854 25.22 -3.5 25.7 66 -8.9 15.9
01:45 1025 30.27 854 25.22 -3.5 25.6 65 -9.3 15.3
01:50 1025 30.27 854 25.22 -3.5 25.7 64 -9.4 15.2
01:55 1025 30.27 854 25.22 -3.4 25.9 63 -9.5 14.9
02:00 1025 30.27 854 25.22 -3.4 26 64 -9.2 15.4
02:05 1025 30.27 854 25.22 -3.4 25.9 64 -9.2 15.5
02:10 1025 30.27 854 25.22 -3.5 25.8 66 -8.9 16.1
02:15 1025 30.27 854 25.22 -3.6 25.5 67 -8.9 15.9
02:20 1025 30.27 854 25.22 -3.7 25.4 66 -9 15.7
02:25 1025 30.27 854 25.22 -3.7 25.3 67 -9 15.8
02:30 1025 30.27 854 25.22 -3.7 25.3 67 -9 15.9
02:35 1025 30.27 854 25.22 -3.8 25.2 68 -9 15.9
02:40 1025 30.27 854 25.22 -3.8 25.2 67 -9 15.8
02:45 1025 30.27 854 25.22 -3.8 25.1 68 -8.9 15.9
02:50 1025 30.27 854 25.22 -3.8 25.1 67 -9 15.8
02:55 1025 30.27 854 25.22 -3.8 25.1 67 -9.1 15.5
03:00 1025 30.27 854 25.22 -3.8 25.2 67 -9 15.8
03:05 1025 30.27 854 25.22 -3.8 25.2 65 -9.4 15.1
03:10 1025 30.27 854 25.22 -3.7 25.4 65 -9.2 15.4
03:15 1025 30.27 854 25.22 -3.7 25.4 66 -9 15.7
03:20 1025 30.27 854 25.22 -3.6 25.5 65 -9.2 15.4
03:25 1025 30.27 854 25.22 -3.5 25.7 66 -9 15.9
03:30 1025 30.27 854 25.22 -3.4 25.9 67 -8.6 16.5
03:35 1025 30.27 854 25.22 -3.4 25.9 67 -8.6 16.6
03:40 1025 30.27 854 25.22 -3.4 25.8 68 -8.5 16.7
03:45 1025 30.27 854 25.22 -3.4 25.9 68 -8.4 16.8
03:50 1025 30.27 854 25.22 -3.3 26 67 -8.7 16.4
03:55 1025 30.27 854 25.22 -3.3 26.1 67 -8.5 16.7
04:00 1025 30.27 854 25.22 -3.2 26.2 67 -8.6 16.6
04:05 1025 30.27 854 25.22 -3.2 26.3 67 -8.4 16.9
04:10 1025 30.27 854 25.22 -3.2 26.3 67 -8.4 16.9
04:15 1025 30.27 854 25.22 -3.2 26.2 70 -7.9 17.8
04:20 1025 30.27 855 25.25 -3.4 25.9 78 -6.7 20
04:25 1025 30.27 855 25.25 -3.8 25.2 81 -6.5 20.3
04:30 1025 30.27 855 25.25 -3.9 24.9 80 -6.8 19.7
04:35 1025 30.27 855 25.25 -3.9 25 79 -7 19.3
04:40 1025 30.27 854 25.22 -3.8 25.1 78 -7.1 19.3
04:45 1025 30.27 855 25.25 -3.8 25.1 79 -7 19.3
04:50 1025 30.27 855 25.25 -3.8 25.1 80 -6.8 19.7
04:55 1025 30.27 855 25.25 -3.9 25 80 -6.9 19.5
05:00 1025 30.27 855 25.25 -4 24.8 81 -6.7 19.9
05:05 1025 30.27 855 25.25 -4.2 24.5 80 -7.1 19.3
05:10 1025 30.27 854 25.22 -4.2 24.4 82 -6.8 19.7
05:15 1025 30.27 854 25.22 -4.4 24.1 84 -6.7 20
05:20 1025 30.27 854 25.22 -4.5 23.9 85 -6.7 19.9
05:25 1025 30.27 855 25.25 -4.6 23.7 85 -6.8 19.7
05:30 1025 30.27 855 25.25 -4.6 23.8 84 -6.8 19.7
05:35 1025 30.27 855 25.25 -4.6 23.7 84 -6.9 19.5
05:40 1025 30.27 855 25.25 -4.6 23.8 83 -7 19.4
05:45 1025 30.27 855 25.25 -4.6 23.8 84 -6.9 19.5
05:50 1025 30.27 855 25.25 -4.5 23.8 84 -6.9 19.6
05:55 1025 30.27 855 25.25 -4.6 23.8 82 -7.1 19.1
06:00 1025 30.27 855 25.25 -4.5 23.9 82 -7.2 19
06:05 1025 30.27 855 25.25 -4.4 24 81 -7.2 19
06:10 1025 30.27 855 25.25 -4.4 24.1 81 -7.2 19
06:15 1025 30.27 855 25.25 -4.4 24.1 82 -7.1 19.2
06:20 1025 30.27 855 25.25 -4.4 24 82 -7 19.4
06:25 1025 30.27 855 25.25 -4.4 24 83 -6.9 19.5
06:30 1025 30.27 855 25.25 -4.5 23.9 83 -7 19.4
06:35 1025 30.27 855 25.25 -4.7 23.6 83 -7.1 19.2
06:40 1025 30.27 855 25.25 -4.7 23.5 83 -7.2 19
06:45 1025 30.27 855 25.25 -4.7 23.5 81 -7.5 18.6
06:50 1026 30.3 855 25.25 -4.6 23.7 82 -7.3 18.9
06:55 1026 30.3 855 25.25 -4.6 23.7 82 -7.2 19
07:00 1026 30.3 855 25.25 -4.7 23.6 83 -7.2 19
07:05 1026 30.3 855 25.25 -4.7 23.5 82 -7.4 18.7
07:10 1026 30.3 855 25.25 -4.5 23.8 79 -7.6 18.3
07:15 1026 30.3 855 25.25 -4.4 24 79 -7.6 18.4
07:20 1026 30.3 855 25.25 -4.4 24 79 -7.6 18.4
07:25 1026 30.3 855 25.25 -4.4 24 77 -7.9 17.8
07:30 1026 30.3 855 25.25 -4.4 24.2 76 -8 17.6
07:35 1026 30.3 855 25.25 -4.4 24.1 76 -8 17.5
07:40 1026 30.3 855 25.25 -4.5 24 76 -8.1 17.5
07:45 1026 30.3 855 25.25 -4.5 23.9 75 -8.3 17.1
07:50 1026 30.3 855 25.25 -4.5 23.9 74 -8.4 16.8
07:55 1026 30.3 855 25.25 -4.5 23.9 75 -8.3 17.1
08:00 1026 30.3 855 25.25 -4.5 23.9 73 -8.6 16.5
08:05 1026 30.3 855 25.25 -4.5 23.9 73 -8.7 16.3
08:10 1026 30.3 855 25.25 -4.6 23.8 73 -8.7 16.3
08:15 1026 30.3 855 25.25 -4.5 23.8 69 -9.4 15.1
08:20 1026 30.3 855 25.25 -4.5 23.9 70 -9.2 15.5
08:25 1026 30.3 855 25.25 -4.6 23.8 68 -9.5 14.9
08:30 1026 30.3 855 25.25 -4.6 23.6 71 -9.1 15.6
08:35 1026 30.3 855 25.25 -5 22.9 77 -8.5 16.7
08:40 1026 30.3 855 25.25 -5.7 21.7 76 -9.3 15.3
08:45 1026 30.3 855 25.25 -5.6 21.9 73 -9.7 14.5
08:50 1026 30.3 855 25.25 -5.4 22.2 71 -9.8 14.3
08:55 1026 30.3 855 25.25 -5.4 22.2 69 -10.3 13.5
09:00 1026 30.3 855 25.25 -5.3 22.4 70 -10 14
09:05 1026 30.3 855 25.25 -5.5 22.2 72 -9.7 14.5
09:10 1026 30.3 855 25.25 -5.8 21.6 68 -10.7 12.7
09:15 1026 30.3 855 25.25 -5.6 22 66 -11 12.2
09:20 1026 30.3 855 25.25 -5.4 22.3 65 -10.9 12.3
09:25 1026 30.3 855 25.25 -5.3 22.4 66 -10.8 12.6
09:30 1026 30.3 855 25.25 -5.4 22.3 66 -10.8 12.6
09:35 1026 30.3 855 25.25 -5.5 22 66 -10.9 12.4
09:40 1026 30.3 855 25.25 -5.6 21.9 67 -10.7 12.7
09:45 1026 30.3 855 25.25 -5.8 21.6 67 -11 12.2
09:50 1026 30.3 855 25.25 -5.8 21.5 67 -11 12.3
09:55 1026 30.3 855 25.25 -6.1 21 68 -11.1 12
10:00 1026 30.3 855 25.25 -6.2 20.9 70 -10.7 12.7
10:05 1026 30.3 855 25.25 -5.6 21.8 66 -11 12.1
10:10 1026 30.3 855 25.25 -5.3 22.5 66 -10.7 12.7
10:15 1026 30.3 855 25.25 -4.8 23.4 63 -10.8 12.6
10:20 1026 30.3 855 25.25 -4.3 24.3 61 -10.7 12.7
10:25 1026 30.3 855 25.25 -4.2 24.5 60 -10.8 12.5
10:30 1026 30.3 855 25.25 -3.8 25.2 59 -10.6 12.9
10:35 1026 30.3 855 25.25 -3.3 26 56 -10.9 12.5
10:40 1026 30.3 855 25.25 -3.3 26.1 56 -10.8 12.5
10:45 1026 30.3 856 25.28 -3.3 26 56 -10.9 12.5
10:50 1026 30.3 856 25.28 -2.9 26.8 55 -10.8 12.5
10:55 1026 30.3 856 25.28 -2.5 27.6 56 -10.1 13.7
11:00 1026 30.3 856 25.28 -2.1 28.2 54 -10.3 13.4
11:05 1026 30.3 856 25.28 -2 28.4 55 -9.8 14.3
11:10 1026 30.3 856 25.28 -2.1 28.2 57 -9.6 14.7
11:15 1026 30.3 856 25.28 -2.6 27.3 59 -9.6 14.7
11:20 1026 30.3 856 25.28 -2.9 26.8 57 -10.2 13.6
11:25 1027 30.33 856 25.28 -2.7 27.2 56 -10.2 13.7
11:30 1027 30.33 856 25.28 -2 28.3 52 -10.7 12.7
11:35 1026 30.3 856 25.28 -1.6 29.1 50 -10.7 12.8
11:40 1027 30.33 856 25.28 -2 28.4 53 -10.3 13.4
11:45 1027 30.33 856 25.28 -2.4 27.6 54 -10.4 13.2
11:50 1027 30.33 856 25.28 -1.6 29.1 49 -11 12.2
11:55 1027 30.33 856 25.28 -1.1 30.1 50 -10.3 13.5
12:00 1027 30.33 856 25.28 -1.1 30 47 -11.2 11.9
12:05 1027 30.33 856 25.28 -0.6 31 47 -10.6 12.9
12:10 1027 30.33 856 25.28 -0.6 30.9 47 -10.7 12.7
12:15 1027 30.33 856 25.28 -0.7 30.7 46 -10.9 12.3
12:20 1027 30.33 856 25.28 -1 30.2 49 -10.4 13.3
12:25 1027 30.33 856 25.28 -1 30.1 47 -11 12.2
12:30 1027 30.33 856 25.28 -1.4 29.5 50 -10.5 13.1
12:35 1026 30.3 856 25.28 -1.5 29.3 51 -10.4 13.3
12:40 1026 30.3 856 25.28 -0.8 30.5 47 -10.8 12.6
12:45 1026 30.3 856 25.28 -1.6 29.1 52 -10.1 13.8
12:50 1026 30.3 856 25.28 -1.2 29.8 48 -11 12.1
12:55 1026 30.3 855 25.25 -0.8 30.5 47 -10.7 12.8
13:00 1026 30.3 855 25.25 -1.4 29.5 50 -10.5 13
13:05 1026 30.3 855 25.25 -1.4 29.6 49 -10.9 12.4
13:10 1026 30.3 855 25.25 -0.6 30.9 46 -10.9 12.4
13:15 1026 30.3 855 25.25 0.2 32.4 41 -11.5 11.3
13:20 1026 30.3 855 25.25 0.6 33 42 -11 12.2
13:25 1026 30.3 855 25.25 0.7 33.2 40 -11.3 11.6
13:30 1026 30.3 855 25.25 0.2 32.4 44 -10.6 13
13:35 1026 30.3 855 25.25 -0.1 31.8 42 -11.4 11.5
13:40 1026 30.3 855 25.25 0 32 42 -11.3 11.7
13:45 1026 30.3 855 25.25 0.6 33.1 42 -11 12.2
13:50 1026 30.3 855 25.25 -0.5 31.1 43 -11.6 11.1
13:55 1026 30.3 855 25.25 -0.5 31 46 -10.8 12.6
14:00 1026 30.3 855 25.25 0.2 32.3 40 -11.9 10.6
14:05 1026 30.3 855 25.25 -0.3 31.5 44 -11.1 12
14:10 1025 30.27 855 25.25 0 32.1 41 -11.7 11
14:15 1025 30.27 855 25.25 0.8 33.4 38 -12.1 10.3
14:20 1025 30.27 855 25.25 1 33.7 38 -11.9 10.6
14:25 1025 30.27 855 25.25 0.1 32.3 39 -12.3 9.9
14:30 1025 30.27 854 25.22 0.1 32.1 39 -12.2 10
14:35 1025 30.27 854 25.22 0.3 32.5 38 -12.3 9.8
14:40 1025 30.27 854 25.22 -0.4 31.4 40 -12.4 9.6
14:45 1025 30.27 854 25.22 -0.4 31.3 39 -12.7 9.2
14:50 1025 30.27 854 25.22 -0.5 31 40 -12.4 9.6
14:55 1025 30.27 854 25.22 -0.5 31 40 -12.4 9.7
15:00 1025 30.27 854 25.22 -0.5 31.1 39 -12.8 8.9
15:05 1025 30.27 854 25.22 0 32 37 -12.9 8.8
15:10 1025 30.27 854 25.22 0.6 33.1 34 -13.4 7.8
15:15 1025 30.27 854 25.22 0.2 32.4 38 -12.4 9.6
15:20 1025 30.27 854 25.22 -0.4 31.4 41 -11.9 10.5
15:25 1025 30.27 854 25.22 -0.5 31.1 40 -12.7 9.2
15:30 1025 30.27 854 25.22 -0.6 30.8 39 -13 8.6
15:35 1025 30.27 854 25.22 -0.3 31.4 37 -13.3 8.1
15:40 1024 30.24 854 25.22 0.1 32.2 37 -13 8.6
15:45 1025 30.27 854 25.22 1 33.7 33 -13.5 7.8
15:50 1025 30.27 854 25.22 1.4 34.5 33 -13.3 8.1
15:55 1025 30.27 854 25.22 1.3 34.3 32 -13.6 7.6
16:00 1025 30.27 854 25.22 0.9 33.6 36 -12.7 9.1
16:05 1025 30.27 854 25.22 0.5 32.8 36 -13.1 8.4
16:10 1025 30.27 854 25.22 0.6 33 35 -13.1 8.4
16:15 1024 30.24 854 25.22 0.7 33.3 34 -13.5 7.7
16:20 1024 30.24 854 25.22 1.4 34.6 33 -13.1 8.4
16:25 1024 30.24 854 25.22 1.6 34.9 32 -13.3 8.1
16:30 1024 30.24 854 25.22 1.1 33.9 33 -13.6 7.5
16:35 1025 30.27 854 25.22 1.3 34.3 33 -13.2 8.2
16:40 1024 30.24 854 25.22 0.5 32.9 35 -13.3 8
16:45 1024 30.24 854 25.22 0.3 32.5 34 -13.7 7.3
16:50 1025 30.27 854 25.22 0.1 32.3 34 -13.8 7.1
16:55 1024 30.24 854 25.22 0.7 33.2 33 -13.9 7
17:00 1025 30.27 854 25.22 1 33.7 33 -13.6 7.6
17:05 1025 30.27 854 25.22 0.9 33.7 33 -13.6 7.5
17:10 1025 30.27 854 25.22 0.9 33.7 33 -13.5 7.6
17:15 1024 30.24 854 25.22 0.6 33 34 -13.5 7.7
17:20 1024 30.24 854 25.22 0.8 33.5 34 -13.5 7.7
17:25 1024 30.24 854 25.22 0.6 33.1 34 -13.6 7.6
17:30 1024 30.24 854 25.22 0.4 32.8 35 -13.4 7.9
17:35 1024 30.24 854 25.22 0.5 33 33 -13.8 7.1
17:40 1024 30.24 854 25.22 0.8 33.5 33 -13.8 7.2
17:45 1024 30.24 854 25.22 0 32 36 -13.4 7.8
17:50 1024 30.24 854 25.22 -0.6 31 37 -13.5 7.6
17:55 1024 30.24 854 25.22 -0.9 30.5 39 -13.2 8.2
18:00 1024 30.24 854 25.22 -0.6 30.9 38 -13.4 7.9
18:05 1024 30.24 854 25.22 -0.7 30.7 37 -13.7 7.4
18:10 1024 30.24 854 25.22 -1.3 29.7 39 -13.4 7.8
18:15 1024 30.24 854 25.22 -1.5 29.3 40 -13.6 7.6
18:20 1024 30.24 854 25.22 -1.7 28.9 41 -13.4 7.9
18:25 1024 30.24 853 25.19 -1.9 28.7 42 -13.2 8.2
18:30 1024 30.24 853 25.19 -1.9 28.6 43 -13 8.6
18:35 1024 30.24 854 25.22 -2 28.5 47 -11.7 10.9
18:40 1024 30.24 854 25.22 -2.4 27.6 51 -11.4 11.5
18:45 1024 30.24 854 25.22 -2.9 26.8 52 -11.5 11.4
18:50 1024 30.24 854 25.22 -3.3 26.1 54 -11.3 11.7
18:55 1024 30.24 854 25.22 -3.4 25.9 53 -11.8 10.8
19:00 1024 30.24 854 25.22 -3.3 26.1 52 -11.8 10.8
19:05 1024 30.24 854 25.22 -3.3 26 53 -11.7 10.9
19:10 1024 30.24 854 25.22 -3.2 26.2 52 -11.8 10.8
19:15 1024 30.24 854 25.22 -3.4 25.9 53 -11.6 11.1
19:20 1024 30.24 854 25.22 -3.9 25.1 54 -11.8 10.7
19:25 1024 30.24 854 25.22 -4 24.7 54 -11.9 10.6
19:30 1024 30.24 854 25.22 -4.2 24.4 55 -11.9 10.6
19:35 1024 30.24 854 25.22 -4.1 24.6 54 -12.1 10.2
19:40 1024 30.24 854 25.22 -4.2 24.4 56 -11.8 10.7
19:45 1024 30.24 854 25.22 -4.3 24.2 57 -11.6 11.1
19:50 1024 30.24 854 25.22 -4.2 24.4 54 -12.2 10
19:55 1024 30.24 854 25.22 -4.2 24.4 53 -12.4 9.7
20:00 1024 30.24 854 25.22 -4.2 24.4 55 -11.9 10.6
20:05 1024 30.24 853 25.19 -4 24.9 53 -12.1 10.2
20:10 1024 30.24 854 25.22 -4.4 24.2 54 -12.2 10
20:15 1024 30.24 854 25.22 -4.5 23.9 55 -12.2 10
20:20 1024 30.24 854 25.22 -4.4 24.1 53 -12.5 9.5
20:25 1024 30.24 854 25.22 -4.4 24.2 55 -12.2 10.1
20:30 1024 30.24 854 25.22 -4.7 23.6 55 -12.4 9.6
20:35 1024 30.24 854 25.22 -4.8 23.4 57 -12.1 10.3
20:40 1024 30.24 854 25.22 -4.7 23.5 55 -12.4 9.7
20:45 1024 30.24 854 25.22 -4.4 24 55 -12.2 10.1
20:50 1024 30.24 853 25.19 -4.5 23.9 55 -12.3 9.9
20:55 1024 30.24 853 25.19 -4 24.9 53 -12.3 9.8
21:00 1024 30.24 853 25.19 -4.1 24.7 52 -12.4 9.6
21:05 1024 30.24 853 25.19 -4.3 24.3 52 -12.8 9
21:10 1024 30.24 853 25.19 -4.5 24 53 -12.7 9.2
21:15 1024 30.24 853 25.19 -4.6 23.7 53 -12.7 9.1
21:20 1024 30.24 853 25.19 -4.7 23.5 55 -12.5 9.4
21:25 1024 30.24 853 25.19 -5.1 22.8 56 -12.6 9.4
21:30 1024 30.24 853 25.19 -4.8 23.4 53 -12.9 8.7
21:35 1024 30.24 853 25.19 -4.3 24.3 51 -12.9 8.8
21:40 1024 30.24 853 25.19 -4.2 24.4 54 -12.3 9.9
21:45 1024 30.24 853 25.19 -4.7 23.6 53 -13 8.6
21:50 1024 30.24 853 25.19 -4.4 24 53 -12.7 9.1
21:55 1024 30.24 853 25.19 -4.6 23.7 53 -12.7 9.1
22:00 1024 30.24 853 25.19 -4.7 23.5 52 -13.1 8.4
22:05 1024 30.24 853 25.19 -4.4 24 52 -12.9 8.8
22:10 1024 30.24 853 25.19 -5.1 22.8 56 -12.6 9.4
22:15 1024 30.24 853 25.19 -5.6 21.9 57 -12.9 8.7
22:20 1024 30.24 853 25.19 -5.6 22 55 -13.3 8.1
22:25 1024 30.24 853 25.19 -5.6 22 56 -13 8.5
22:30 1024 30.24 853 25.19 -5.6 21.8 56 -13.2 8.3
22:35 1024 30.24 853 25.19 -5.6 21.9 55 -13.2 8.3
22:40 1024 30.24 853 25.19 -5.4 22.2 55 -13.1 8.4
22:45 1024 30.24 853 25.19 -5.5 22.1 56 -12.9 8.7
22:50 1024 30.24 853 25.19 -5.6 21.9 58 -12.6 9.3
22:55 1024 30.24 853 25.19 -5.4 22.3 57 -12.7 9.1
23:00 1024 30.24 853 25.19 -5.6 22 57 -12.7 9.2
23:05 1024 30.24 853 25.19 -6 21.2 58 -13 8.6
23:10 1024 30.24 853 25.19 -5.9 21.5 57 -13.1 8.4
23:15 1024 30.24 853 25.19 -5.8 21.6 56 -13.3 8.1
23:20 1024 30.24 853 25.19 -5.3 22.4 53 -13.4 7.9
23:25 1024 30.24 853 25.19 -4.9 23.1 52 -13.4 7.9
23:30 1024 30.24 853 25.19 -4.8 23.4 52 -13.1 8.4
23:35 1024 30.24 853 25.19 -4.9 23.3 52 -13.2 8.2
23:40 1024 30.24 853 25.19 -5 23 53 -13.1 8.5
23:45 1024 30.24 853 25.19 -5.3 22.5 55 -13 8.6
23:50 1024 30.24 853 25.19 -5.3 22.5 53 -13.5 7.6
23:55 1024 30.24 853 25.19 -4.9 23.1 51 -13.6 7.5
24:00 1024 30.24 853 25.19 -4.7 23.6 53 -12.9 8.8